Flight Track Log - Related Links

Times and Time Zones

All times are in EDT time to prevent confusion due to time zone crossing. See the FDX760 flight status page for this flight to view local times or setup timezone preferences in your user account.

Time Position Orientation Groundspeed Altitude Reporting Facility
EDT Latitude Longitude Course Direction KTS MPH feet Rate Location/Type
Thu 05:43:15 PM 35.0500 -89.9667 360° North 169 194 1,700  Level KMEM
Thu 05:44:21 PM 35.1167 -89.9667 360° North 276 318 5,700 4,150 Climbing KMEM
Thu 05:45:15 PM 35.1833 -89.9500 12° North 284 327 10,000 3,449 Climbing KMEM
Thu 05:47:08 PM 35.3567 -89.8122 33° Northeast 391 450 15,300 2,289 Climbing Memphis Center
Thu 05:48:08 PM 35.4644 -89.7044 39° Northeast 465 535 16,600 2,650 Climbing Memphis Center
Thu 05:49:08 PM 35.5744 -89.5964 39° Northeast 498 573 20,600 3,200 Climbing Memphis Center
Thu 05:50:08 PM 35.6989 -89.4750 38° Northeast 517 595 23,000 1,350 Climbing Memphis Center
Thu 05:51:08 PM 35.8294 -89.3789 31° Northeast 522 601 23,300 1,650 Climbing Memphis Center
Thu 05:52:08 PM 35.9600 -89.2825 31° Northeast 538 619 26,300 2,750 Climbing Memphis Center
Thu 05:53:08 PM 36.0947 -89.1806 31° Northeast 551 634 28,800 1,600 Climbing Memphis Center
Thu 05:54:08 PM 36.2186 -89.0836 32° Northeast 568 654 29,500 1,650 Climbing Memphis Center
Thu 05:55:08 PM 36.3594 -88.9783 31° Northeast 579 666 32,100 1,021 Climbing Memphis Center
Thu 06:01:23 PM 37.2380 -88.3070 31° Northeast 586 674 36,900 871 Climbing FlightAware ADS-B
Thu 06:02:08 PM 37.3410 -88.2280 31° Northeast 586 674 38,200 1,400 Climbing FlightAware ADS-B
Thu 06:02:53 PM 37.4510 -88.1410 32° Northeast 594 684 39,000 565 Climbing FlightAware ADS-B
Thu 06:03:33 PM 37.5410 -88.0710 32° Northeast 593 682 39,000  Level FlightAware ADS-B
Thu 06:04:18 PM 37.6490 -87.9840 33° Northeast 595 685 39,000  Level FlightAware ADS-B
Thu 06:04:58 PM 37.7430 -87.9110 32° Northeast 593 682 39,000  Level FlightAware ADS-B
Thu 06:05:43 PM 37.8450 -87.8290 32° Northeast 594 684 39,000  Level FlightAware ADS-B
Thu 06:06:23 PM 37.9350 -87.7440 37° Northeast 590 679 39,000  Level FlightAware ADS-B
Thu 06:07:03 PM 38.0050 -87.6440 48° Northeast 581 669 39,000  Level FlightAware ADS-B
Thu 06:07:48 PM 38.0790 -87.5280 51° Northeast 580 667 39,000  Level FlightAware ADS-B
Thu 06:08:28 PM 38.1470 -87.4220 51° Northeast 580 667 39,000  Level FlightAware ADS-B
Thu 06:09:08 PM 38.2150 -87.3130 52° Northeast 578 665 39,000 71 Level FlightAware ADS-B
Thu 06:09:53 PM 38.2920 -87.1950 50° Northeast 577 664 39,100 71 Climbing FlightAware ADS-B
Thu 06:10:33 PM 38.3760 -87.1110 38° Northeast 575 662 39,100 -71 Level FlightAware ADS-B
Thu 06:11:18 PM 38.4720 -87.0230 36° Northeast 573 659 39,000 -71 Descending FlightAware ADS-B
Thu 06:11:58 PM 38.5480 -86.9250 45° Northeast 563 648 39,000  Level FlightAware ADS-B
Thu 06:12:43 PM 38.6170 -86.8030 54° Northeast 568 654 39,000  Level FlightAware ADS-B
Thu 06:13:23 PM 38.6770 -86.6970 54° Northeast 569 655 39,000  Level FlightAware ADS-B
Thu 06:14:03 PM 38.7400 -86.5840 54° Northeast 572 658 39,000  Level FlightAware ADS-B
Thu 06:14:48 PM 38.8080 -86.4630 54° Northeast 574 661 39,000 71 Level FlightAware ADS-B
Thu 06:15:28 PM 38.8680 -86.3550 54° Northeast 575 662 39,100 71 Climbing FlightAware ADS-B
Thu 06:16:13 PM 38.9400 -86.2240 55° Northeast 575 662 39,100 -71 Level FlightAware ADS-B
Thu 06:16:53 PM 39.0000 -86.1180 54° Northeast 574 661 39,000 -75 Descending FlightAware ADS-B
Thu 06:17:33 PM 39.0590 -86.0100 55° Northeast 573 659 39,000  Level FlightAware ADS-B
Thu 06:18:18 PM 39.1320 -85.8790 54° Northeast 572 658 39,000  Level FlightAware ADS-B
Thu 06:18:58 PM 39.1930 -85.7650 55° Northeast 572 658 39,000  Level FlightAware ADS-B
Thu 06:19:43 PM 39.2600 -85.6420 55° Northeast 570 656 39,000  Level FlightAware ADS-B
Thu 06:20:23 PM 39.3210 -85.5300 55° Northeast 570 656 39,000  Level FlightAware ADS-B
Thu 06:21:03 PM 39.3800 -85.4210 55° Northeast 573 659 39,000  Level FlightAware ADS-B
Thu 06:21:48 PM 39.4480 -85.2950 55° Northeast 575 662 39,000  Level FlightAware ADS-B
Thu 06:22:43 PM 39.5270 -85.1500 55° Northeast 575 662 39,000 63 Level FlightAware ADS-B
Thu 06:23:23 PM 39.5890 -85.0310 56° Northeast 577 664 39,100 75 Climbing FlightAware ADS-B
Thu 06:24:03 PM 39.6540 -84.9120 55° Northeast 577 664 39,100  Level FlightAware ADS-B
Thu 06:24:48 PM 39.7140 -84.8010 55° Northeast 577 664 39,100 -67 Level FlightAware ADS-B
Thu 06:25:33 PM 39.7890 -84.6560 56° Northeast 571 657 39,000 -71 Descending FlightAware ADS-B
Thu 06:26:13 PM 39.8500 -84.5390 56° Northeast 569 655 39,000  Level FlightAware ADS-B
Thu 06:27:08 PM 39.9320 -84.3850 55° Northeast 564 649 39,000  Level FlightAware ADS-B
Thu 06:27:43 PM 39.9800 -84.2920 56° Northeast 561 646 39,000  Level FlightAware ADS-B
Thu 06:28:33 PM 40.0540 -84.1500 56° Northeast 558 642 39,000  Level FlightAware ADS-B
Thu 06:29:13 PM 40.1130 -84.0360 56° Northeast 554 638 39,000  Level FlightAware ADS-B
Thu 06:29:58 PM 40.1770 -83.9110 56° Northeast 551 634 39,000  Level FlightAware ADS-B
Thu 06:30:38 PM 40.2340 -83.8010 56° Northeast 549 632 39,000  Level FlightAware ADS-B
Thu 06:31:18 PM 40.2890 -83.6940 56° Northeast 546 628 39,000  Level FlightAware ADS-B
Thu 06:32:03 PM 40.3540 -83.5650 56° Northeast 541 623 39,000  Level FlightAware ADS-B
Thu 06:32:43 PM 40.4080 -83.4580 56° Northeast 544 626 39,000  Level FlightAware ADS-B
Thu 06:33:28 PM 40.4710 -83.3360 56° Northeast 551 634 39,000 71 Level FlightAware ADS-B
Thu 06:34:08 PM 40.5280 -83.2220 57° Northeast 554 638 39,100 71 Climbing FlightAware ADS-B
Thu 06:34:53 PM 40.5930 -83.0950 56° Northeast 558 642 39,100  Level FlightAware ADS-B
Thu 06:35:33 PM 40.6500 -82.9820 56° Northeast 556 640 39,100 -71 Level FlightAware ADS-B
Thu 06:36:18 PM 40.7120 -82.8550 57° Northeast 553 636 39,000 -71 Descending FlightAware ADS-B
Thu 06:36:58 PM 40.7670 -82.7450 57° Northeast 553 636 39,000  Level FlightAware ADS-B
Thu 06:37:43 PM 40.8290 -82.6180 57° Northeast 551 634 39,000  Level FlightAware ADS-B
Thu 06:38:23 PM 40.8840 -82.5090 56° Northeast 550 633 39,000  Level FlightAware ADS-B
Thu 06:39:03 PM 40.9350 -82.3930 60° Northeast 548 631 39,000  Level FlightAware ADS-B
Thu 06:39:48 PM 40.9600 -82.2470 77° East 546 628 39,000 71 Level FlightAware ADS-B
Thu 06:40:28 PM 40.9820 -82.1060 78° East 548 631 39,100 71 Climbing FlightAware ADS-B
Thu 06:41:13 PM 41.0030 -81.9610 79° East 548 631 39,100 -71 Level FlightAware ADS-B
Thu 06:41:53 PM 41.0220 -81.8300 79° East 546 628 39,000 -71 Descending FlightAware ADS-B
Thu 06:42:38 PM 41.0430 -81.6820 79° East 545 627 39,000  Level FlightAware ADS-B
Thu 06:43:18 PM 41.0610 -81.5540 79° East 544 626 39,000  Level FlightAware ADS-B
Thu 06:43:58 PM 41.0800 -81.4240 79° East 543 625 39,000  Level FlightAware ADS-B
Thu 06:44:43 PM 41.1010 -81.2700 80° East 542 624 39,000  Level FlightAware ADS-B
Thu 06:45:23 PM 41.1200 -81.1400 79° East 540 621 39,000  Level FlightAware ADS-B
Thu 06:46:08 PM 41.1390 -80.9970 80° East 538 619 39,000  Level FlightAware ADS-B
Thu 06:46:48 PM 41.1570 -80.8700 79° East 519 597 39,000  Level FlightAware ADS-B
Thu 06:47:28 PM 41.1730 -80.7480 80° East 521 600 39,000  Level FlightAware ADS-B
Thu 06:48:13 PM 41.1930 -80.5990 80° East 525 604 39,000  Level FlightAware ADS-B
Thu 06:48:53 PM 41.2100 -80.4720 80° East 528 608 39,000  Level FlightAware ADS-B
Thu 06:49:38 PM 41.2290 -80.3320 80° East 526 605 39,000  Level FlightAware ADS-B
Thu 06:50:18 PM 41.2450 -80.2080 80° East 522 601 39,000  Level FlightAware ADS-B
Thu 06:50:53 PM 41.2590 -80.0950 81° East 521 600 39,000  Level FlightAware ADS-B
Thu 06:52:38 PM 41.3020 -79.7680 80° East 529 609 39,000  Level FlightAware ADS-B
Thu 06:53:18 PM 41.3180 -79.6330 81° East 530 610 39,000  Level FlightAware ADS-B
Thu 06:53:53 PM 41.3320 -79.5210 81° East 525 604 39,000  Level FlightAware ADS-B
Thu 06:54:09 PM 41.3378 -79.4936 81° East 529 609 39,000  Level Cleveland Center
Thu 06:55:09 PM 41.3628 -79.2994 80° East 529 609 39,000  Level Cleveland Center
Thu 06:56:09 PM 41.3836 -79.1081 82° East 522 601 39,000  Level Cleveland Center
Thu 06:57:09 PM 41.4058 -78.9167 81° East 522 601 39,000  Level Cleveland Center
Thu 06:58:09 PM 41.4281 -78.7250 81° East 522 601 39,000 -515 Level Cleveland Center
Thu 06:59:52 PM 41.4283 -78.4000 90° East 515 593 37,600 -1,207 Descending New York Center
Thu 07:00:53 PM 41.4200 -78.2053 93° East 520 598 35,700 -1,869 Descending New York Center
Thu 07:01:54 PM 41.4092 -78.0075 94° East 520 598 33,800 -2,067 Descending New York Center
Thu 07:02:52 PM 41.3958 -77.8125 95° East 530 610 31,600 -1,353 Descending New York Center
Thu 07:08:33 PM 41.2720 -76.7630 95° East 465 535 24,800 -1,138 Descending FlightAware ADS-B
Thu 07:09:38 PM 41.2420 -76.5940 103° East 457 526 23,900 -1,629 Descending FlightAware ADS-B
Thu 07:10:53 PM 41.2050 -76.3880 103° East 454 522 21,000 -2,257 Descending FlightAware ADS-B
Thu 07:11:27 PM 41.1841 -76.2751 104° East 448 516 19,800 -1,969 Descending FlightAware ADS-B
Thu 07:11:57 PM 41.1694 -76.1931 103° East 441 507 18,900 -1,619 Descending FlightAware ADS-B
Thu 07:12:30 PM 41.1538 -76.1072 104° East 434 499 18,100 -1,108 Descending FlightAware ADS-B
Thu 07:13:02 PM 41.1365 -76.0286 106° East 430 495 17,700 -1,065 Descending FlightAware ADS-B
Thu 07:13:32 PM 41.1161 -75.9525 110° East 421 484 17,000 -1,475 Descending FlightAware ADS-B
Thu 07:14:03 PM 41.0954 -75.8783 110° East 415 478 16,200 -1,548 Descending FlightAware ADS-B
Thu 07:14:34 PM 41.0750 -75.8047 110° East 411 473 15,400 -1,543 Descending FlightAware ADS-B
Thu 07:15:13 PM 41.0496 -75.7122 110° East 414 476 14,400 -1,437 Descending FlightAware ADS-B
Thu 07:15:45 PM 41.0289 -75.6387 110° East 407 468 13,700 -1,333 Descending FlightAware ADS-B
Thu 07:16:16 PM 41.0093 -75.5675 110° East 388 447 13,000 -885 Descending FlightAware ADS-B
Thu 07:16:46 PM 40.9921 -75.5042 110° East 337 388 12,800 -1,164 Descending FlightAware ADS-B
Thu 07:17:23 PM 40.9723 -75.4327 110° East 337 388 11,700 -1,325 Descending FlightAware ADS-B
Thu 07:18:03 PM 40.9520 -75.3650 112° Southeast 321 369 11,100 -960 Descending FlightAware ADS-B
Thu 07:18:38 PM 40.9340 -75.2970 109° East 320 368 10,500 -1,119 Descending FlightAware ADS-B
Thu 07:19:02 PM 40.9201 -75.2498 111° Southeast 331 381 10,000 -1,119 Descending FlightAware ADS-B
Thu 07:19:37 PM 40.9022 -75.1864 110° East 315 362 9,400 -1,034 Descending FlightAware ADS-B
Thu 07:20:00 PM 40.8905 -75.1453 111° Southeast 309 356 9,000 -923 Descending FlightAware ADS-B
Thu 07:20:16 PM 40.8827 -75.1173 110° East 304 350 8,800 -938 Descending FlightAware ADS-B
Thu 07:20:32 PM 40.8748 -75.0894 111° Southeast 304 350 8,500 -909 Descending FlightAware ADS-B
Thu 07:20:49 PM 40.8664 -75.0597 110° East 305 351 8,300 -909 Descending FlightAware ADS-B
Thu 07:21:05 PM 40.8585 -75.0320 111° Southeast 303 349 8,000 -1,125 Descending FlightAware ADS-B
Thu 07:21:37 PM 40.8435 -74.9791 111° Southeast 294 338 7,400 -1,021 Descending FlightAware ADS-B
Thu 07:21:52 PM 40.8361 -74.9540 111° Southeast 294 338 7,200 -800 Descending FlightAware ADS-B
Thu 07:22:07 PM 40.8289 -74.9288 111° Southeast 295 339 7,000 -563 Descending FlightAware ADS-B
Thu 07:22:24 PM 40.8209 -74.8981 109° East 294 338 6,900 -171 Descending FlightAware ADS-B
Thu 07:22:42 PM 40.8142 -74.8671 106° East 295 339 6,900  Level FlightAware ADS-B
Thu 07:23:00 PM 40.8070 -74.8379 108° East 295 339 6,900  Level FlightAware ADS-B
Thu 07:23:19 PM 40.7992 -74.8035 107° East 296 341 6,900  Level FlightAware ADS-B
Thu 07:23:36 PM 40.7936 -74.7737 104° East 295 339 6,900  Level FlightAware ADS-B
Thu 07:24:08 PM 40.8050 -74.7290 71° East 281 323 6,900 128 Level FlightAware ADS-B
Thu 07:24:23 PM 40.8220 -74.7150 32° Northeast 256 295 7,000  Climbing FlightAware ADS-B
Thu 07:24:48 PM 40.8480 -74.6990 25° Northeast 256 295 6,900 -150 Descending FlightAware ADS-B
Thu 07:25:03 PM 40.8650 -74.6900 22° Northeast 256 295 6,900  Level FlightAware ADS-B
Thu 07:25:33 PM 40.8990 -74.6710 23° Northeast 255 293 6,900  Level FlightAware ADS-B
Thu 07:25:58 PM 40.9220 -74.6570 25° Northeast 255 293 6,900  Level FlightAware ADS-B
Thu 07:26:23 PM 40.9520 -74.6390 24° Northeast 256 295 6,900  Level FlightAware ADS-B
Thu 07:26:38 PM 40.9630 -74.6230 48° Northeast 263 303 6,900  Level FlightAware ADS-B
Thu 07:27:08 PM 40.9784 -74.5740 67° East 264 304 6,900  Level FlightAware ADS-B
Thu 07:27:18 PM 40.9805 -74.5568 81° East 263 303 6,900  Level FlightAware ADS-B
Thu 07:27:53 PM 40.9620 -74.5160 121° Southeast 244 281 6,900  Level FlightAware ADS-B
Thu 07:27:58 PM 40.9539 -74.5127 163° South 237 273 6,900  Level FlightAware ADS-B
Thu 07:28:12 PM 40.9394 -74.5134 182° South 224 258 6,900 -429 Level FlightAware ADS-B
Thu 07:28:26 PM 40.9275 -74.5226 210° Southwest 219 252 6,700 -1,059 Descending FlightAware ADS-B
Thu 07:29:03 PM 40.9020 -74.5540 223° Southwest 212 244 6,000 -750 Descending FlightAware ADS-B
Thu 07:29:30 PM 40.8767 -74.5696 205° Southwest 222 255 5,900 -109 Descending FlightAware ADS-B
Thu 07:29:58 PM 40.8477 -74.5723 184° South 223 257 5,900  Level FlightAware ADS-B
Thu 07:30:17 PM 40.8282 -74.5738 183° South 222 255 5,900  Level FlightAware ADS-B
Thu 07:30:33 PM 40.8116 -74.5753 184° South 225 259 5,900  Level FlightAware ADS-B
Thu 07:30:49 PM 40.7954 -74.5767 184° South 224 258 5,900  Level FlightAware ADS-B
Thu 07:31:17 PM 40.7664 -74.5794 184° South 222 255 5,900 -130 Level FlightAware ADS-B
Thu 07:31:35 PM 40.7477 -74.5811 184° South 222 255 5,800 -698 Descending FlightAware ADS-B
Thu 07:32:00 PM 40.7228 -74.5836 184° South 221 254 5,400 -913 Descending FlightAware ADS-B
Thu 07:32:21 PM 40.7017 -74.5859 185° South 216 249 5,100 -698 Descending FlightAware ADS-B
Thu 07:32:43 PM 40.6800 -74.5885 185° South 204 235 4,900 -250 Descending FlightAware ADS-B
Thu 07:33:09 PM 40.6549 -74.5913 185° South 210 242 4,900  Level FlightAware ADS-B
Thu 07:33:32 PM 40.6328 -74.5936 185° South 212 244 4,900  Level FlightAware ADS-B
Thu 07:34:08 PM 40.5990 -74.5970 184° South 213 245 4,900  Level FlightAware ADS-B
Thu 07:34:38 PM 40.5700 -74.6000 184° South 215 247 4,900  Level FlightAware ADS-B
Thu 07:34:42 PM 40.5640 -74.6010 187° South 215 247 4,900  Level FlightAware ADS-B
Thu 07:34:58 PM 40.5477 -74.6028 185° South 211 243 4,900  Level FlightAware ADS-B
Thu 07:35:14 PM 40.5323 -74.6046 185° South 213 245 4,900  Level FlightAware ADS-B
Thu 07:35:26 PM 40.5205 -74.6058 184° South 215 247 4,900  Level FlightAware ADS-B
Thu 07:35:39 PM 40.5075 -74.6068 183° South 216 249 4,900  Level FlightAware ADS-B
Thu 07:35:42 PM 40.5041 -74.6065 176° South 218 251 4,900  Level FlightAware ADS-B
Thu 07:35:46 PM 40.5001 -74.6056 170° South 221 254 4,900  Level FlightAware ADS-B
Thu 07:35:51 PM 40.4953 -74.6038 164° South 220 253 4,900  Level FlightAware ADS-B
Thu 07:36:06 PM 40.4806 -74.5980 163° South 221 254 4,900  Level FlightAware ADS-B
Thu 07:36:21 PM 40.4655 -74.5927 165° South 219 252 4,900  Level FlightAware ADS-B
Thu 07:36:37 PM 40.4505 -74.5869 164° South 216 249 4,900  Level FlightAware ADS-B
Thu 07:36:53 PM 40.4349 -74.5813 165° South 217 250 4,900  Level FlightAware ADS-B
Thu 07:37:10 PM 40.4190 -74.5756 165° South 213 245 4,900  Level FlightAware ADS-B
Thu 07:37:25 PM 40.4052 -74.5704 164° South 198 228 4,900 200 Level FlightAware ADS-B
Thu 07:37:40 PM 40.3925 -74.5651 162° South 187 215 5,000  Climbing FlightAware ADS-B
Thu 07:37:55 PM 40.3796 -74.5601 164° South 187 215 4,900 -273 Descending FlightAware ADS-B
Thu 07:38:02 PM 40.3736 -74.5575 162° South 190 219 4,900  Level FlightAware ADS-B
Thu 07:38:06 PM 40.3707 -74.5554 151° Southeast 192 221 4,900 -600 Level FlightAware ADS-B
Thu 07:38:12 PM 40.3664 -74.5508 141° Southeast 199 229 4,800 -667 Descending FlightAware ADS-B
Thu 07:38:15 PM 40.3646 -74.5481 131° Southeast 200 230 4,800 -857 Level FlightAware ADS-B
Thu 07:38:19 PM 40.3627 -74.5442 123° Southeast 201 231 4,700 -632 Descending FlightAware ADS-B
Thu 07:38:34 PM 40.3550 -74.5291 124° Southeast 198 228 4,600 -720 Descending FlightAware ADS-B
Thu 07:38:44 PM 40.3499 -74.5190 124° Southeast 196 226 4,400 -800 Descending FlightAware ADS-B
Thu 07:39:04 PM 40.3403 -74.4993 123° Southeast 190 219 4,200 -682 Descending FlightAware ADS-B
Thu 07:39:28 PM 40.3291 -74.4775 124° Southeast 183 211 3,900 -429 Descending FlightAware ADS-B
Thu 07:39:46 PM 40.3205 -74.4613 125° Southeast 181 208 3,900  Level FlightAware ADS-B
Thu 07:40:01 PM 40.3131 -74.4466 123° Southeast 184 212 3,900  Level FlightAware ADS-B
Thu 07:40:14 PM 40.3089 -74.4330 112° Southeast 192 221 3,900  Level FlightAware ADS-B
Thu 07:40:17 PM 40.3089 -74.4295 90° East 195 224 3,900  Level FlightAware ADS-B
Thu 07:40:24 PM 40.3103 -74.4214 77° East 200 230 3,900  Level FlightAware ADS-B
Thu 07:40:29 PM 40.3123 -74.4160 64° Northeast 201 231 3,900  Level FlightAware ADS-B
Thu 07:40:35 PM 40.3156 -74.4109 50° Northeast 204 235 3,900  Level FlightAware ADS-B
Thu 07:40:38 PM 40.3180 -74.4077 45° Northeast 207 238 3,900  Level FlightAware ADS-B
Thu 07:40:44 PM 40.3231 -74.4037 31° Northeast 207 238 3,900 -545 Level FlightAware ADS-B
Thu 07:40:49 PM 40.3275 -74.4008 27° Northeast 207 238 3,800 -667 Descending FlightAware ADS-B
Thu 07:41:02 PM 40.3377 -74.3923 32° Northeast 202 232 3,700 -571 Descending FlightAware ADS-B
Thu 07:41:10 PM 40.3439 -74.3869 34° Northeast 198 228 3,600 -621 Descending FlightAware ADS-B
Thu 07:41:31 PM 40.3600 -74.3738 32° Northeast 191 220 3,400 -545 Descending FlightAware ADS-B
Thu 07:41:54 PM 40.3782 -74.3631 24° Northeast 187 215 3,200 -545 Descending FlightAware ADS-B
Thu 07:42:48 PM 40.4140 -74.3410 25° Northeast 163 188 2,700 -759 Descending FlightAware ADS-B
Thu 07:43:13 PM 40.4320 -74.3300 25° Northeast 165 190 2,200 -1,050 Descending FlightAware ADS-B
Thu 07:43:28 PM 40.4420 -74.3230 28° Northeast 167 192 2,000 -400 Descending FlightAware ADS-B
Thu 07:43:58 PM 40.4630 -74.3100 25° Northeast 157 181 1,900  Descending FlightAware ADS-B
Thu 07:44:23 PM 40.4780 -74.3010 25° Northeast 152 175 2,000  Climbing FlightAware ADS-B
Thu 07:44:53 PM 40.4970 -74.2890 26° Northeast 152 175 1,900 -109 Descending FlightAware ADS-B
Thu 07:45:18 PM 40.5130 -74.2780 28° Northeast 152 175 1,900  Level FlightAware ADS-B
Thu 07:45:29 PM 40.5219 -74.2731 23° Northeast 153 176 1,900  Level FlightAware ADS-B
Thu 07:45:45 PM 40.5319 -74.2666 26° Northeast 152 175 1,900  Level FlightAware ADS-B
Thu 07:46:02 PM 40.5426 -74.2598 26° Northeast 153 176 1,900  Level FlightAware ADS-B
Thu 07:46:17 PM 40.5523 -74.2537 26° Northeast 154 177 1,900  Level FlightAware ADS-B
Thu 07:47:11 PM 40.5879 -74.2312 26° Northeast 157 181 1,900 -154 Level FlightAware ADS-B
Thu 07:47:35 PM 40.6037 -74.2213 25° Northeast 160 184 1,700 -698 Descending FlightAware ADS-B
Thu 07:47:54 PM 40.6156 -74.2136 26° Northeast 145 167 1,400 -750 Descending FlightAware ADS-B
Thu 07:48:15 PM 40.6279 -74.2058 26° Northeast 139 160 1,200 -600 Descending FlightAware ADS-B
Thu 07:48:24 PM 40.6332 -74.2026 25° Northeast 138 159 1,100 -667 Descending FlightAware ADS-B

Login

Don't have an account? Register now (free) for customized features, flight alerts, and more!